sensor_id;sensor_type;location;lat;lon;timestamp;pressure;altitude;pressure_sealevel;temperature;humidity
11413;BME280;5762;43.256;26.960;2023-03-01T00:01:29;100731.77;;;4.14;100.00
11413;BME280;5762;43.256;26.960;2023-03-01T00:03:58;100738.78;;;4.18;100.00
11413;BME280;5762;43.256;26.960;2023-03-01T00:06:27;100734.44;;;4.14;100.00
11413;BME280;5762;43.256;26.960;2023-03-01T00:08:55;100727.62;;;4.09;100.00
11413;BME280;5762;43.256;26.960;2023-03-01T00:11:25;100729.23;;;4.22;100.00
11413;BME280;5762;43.256;26.960;2023-03-01T00:13:54;100733.03;;;4.23;100.00
11413;BME280;5762;43.256;26.960;2023-03-01T00:16:24;100731.45;;;4.25;100.00
11413;BME280;5762;43.256;26.960;2023-03-01T00:18:57;100737.11;;;4.26;100.00
11413;BME280;5762;43.256;26.960;2023-03-01T00:21:22;100735.06;;;4.19;100.00
11413;BME280;5762;43.256;26.960;2023-03-01T00:23:51;100727.55;;;4.18;100.00
11413;BME280;5762;43.256;26.960;2023-03-01T00:26:21;100727.50;;;4.27;100.00
11413;BME280;5762;43.256;26.960;2023-03-01T00:28:49;100725.39;;;4.18;100.00
11413;BME280;5762;43.256;26.960;2023-03-01T00:31:20;100719.86;;;4.22;100.00
11413;BME280;5762;43.256;26.960;2023-03-01T00:33:48;100717.59;;;4.28;100.00
11413;BME280;5762;43.256;26.960;2023-03-01T00:36:16;100719.23;;;4.29;100.00
11413;BME280;5762;43.256;26.960;2023-03-01T00:38:45;100708.79;;;4.18;100.00
11413;BME280;5762;43.256;26.960;2023-03-01T00:41:14;100707.59;;;4.12;100.00
11413;BME280;5762;43.256;26.960;2023-03-01T00:43:43;100697.48;;;4.16;100.00
11413;BME280;5762;43.256;26.960;2023-03-01T00:46:17;100692.25;;;4.21;100.00
11413;BME280;5762;43.256;26.960;2023-03-01T00:48:41;100699.38;;;4.16;100.00
11413;BME280;5762;43.256;26.960;2023-03-01T00:51:11;100702.61;;;4.18;100.00
11413;BME280;5762;43.256;26.960;2023-03-01T00:53:39;100705.06;;;4.19;100.00
11413;BME280;5762;43.256;26.960;2023-03-01T00:56:09;100703.27;;;4.22;100.00
11413;BME280;5762;43.256;26.960;2023-03-01T00:58:37;100712.41;;;4.24;100.00
11413;BME280;5762;43.256;26.960;2023-03-01T01:01:10;100718.08;;;4.13;100.00
11413;BME280;5762;43.256;26.960;2023-03-01T01:03:39;100714.34;;;4.14;100.00
11413;BME280;5762;43.256;26.960;2023-03-01T01:06:12;100717.24;;;4.24;100.00
11413;BME280;5762;43.256;26.960;2023-03-01T01:08:37;100697.32;;;4.20;100.00
11413;BME280;5762;43.256;26.960;2023-03-01T01:11:08;100681.16;;;4.15;100.00
11413;BME280;5762;43.256;26.960;2023-03-01T01:13:36;100681.48;;;4.19;100.00
11413;BME280;5762;43.256;26.960;2023-03-01T01:16:05;100685.20;;;4.18;100.00
11413;BME280;5762;43.256;26.960;2023-03-01T01:18:34;100686.54;;;4.18;100.00
11413;BME280;5762;43.256;26.960;2023-03-01T01:21:04;100684.17;;;4.07;100.00
11413;BME280;5762;43.256;26.960;2023-03-01T01:23:33;100684.81;;;4.12;100.00
11413;BME280;5762;43.256;26.960;2023-03-01T01:26:07;100689.71;;;4.15;100.00
11413;BME280;5762;43.256;26.960;2023-03-01T01:28:31;100691.16;;;4.08;100.00
11413;BME280;5762;43.256;26.960;2023-03-01T01:30:59;100692.09;;;4.14;100.00
11413;BME280;5762;43.256;26.960;2023-03-01T01:33:28;100691.39;;;4.07;100.00
11413;BME280;5762;43.256;26.960;2023-03-01T01:35:56;100692.09;;;4.14;100.00
11413;BME280;5762;43.256;26.960;2023-03-01T01:38:25;100686.45;;;4.13;100.00
11413;BME280;5762;43.256;26.960;2023-03-01T01:40:53;100687.44;;;4.09;100.00
11413;BME280;5762;43.256;26.960;2023-03-01T01:43:26;100680.03;;;4.02;100.00
11413;BME280;5762;43.256;26.960;2023-03-01T01:46:04;100677.70;;;4.06;100.00
11413;BME280;5762;43.256;26.960;2023-03-01T01:51:13;100680.97;;;4.08;100.00
11413;BME280;5762;43.256;26.960;2023-03-01T01:53:41;100676.30;;;4.03;100.00
11413;BME280;5762;43.256;26.960;2023-03-01T01:56:10;100670.95;;;4.03;100.00
11413;BME280;5762;43.256;26.960;2023-03-01T01:58:40;100659.00;;;3.96;100.00
11413;BME280;5762;43.256;26.960;2023-03-01T02:01:09;100652.19;;;3.91;100.00
11413;BME280;5762;43.256;26.960;2023-03-01T02:03:39;100647.64;;;3.92;100.00
11413;BME280;5762;43.256;26.960;2023-03-01T02:06:26;100659.34;;;3.88;100.00
11413;BME280;5762;43.256;26.960;2023-03-01T02:08:53;100657.83;;;3.92;100.00
11413;BME280;5762;43.256;26.960;2023-03-01T02:11:23;100651.32;;;4.00;100.00
11413;BME280;5762;43.256;26.960;2023-03-01T02:13:51;100655.80;;;3.97;100.00
11413;BME280;5762;43.256;26.960;2023-03-01T02:16:21;100667.79;;;3.94;100.00
11413;BME280;5762;43.256;26.960;2023-03-01T02:18:50;100668.06;;;3.84;100.00
11413;BME280;5762;43.256;26.960;2023-03-01T02:23:50;100662.48;;;3.85;100.00
11413;BME280;5762;43.256;26.960;2023-03-01T02:26:53;100672.14;;;3.86;100.00
11413;BME280;5762;43.256;26.960;2023-03-01T02:28:54;100668.48;;;3.90;100.00
11413;BME280;5762;43.256;26.960;2023-03-01T02:31:23;100667.08;;;3.87;100.00
11413;BME280;5762;43.256;26.960;2023-03-01T02:34:12;100668.84;;;3.93;100.00
11413;BME280;5762;43.256;26.960;2023-03-01T02:36:45;100665.47;;;3.98;100.00
11413;BME280;5762;43.256;26.960;2023-03-01T02:39:10;100661.43;;;3.86;100.00
11413;BME280;5762;43.256;26.960;2023-03-01T02:41:39;100662.61;;;3.79;100.00
11413;BME280;5762;43.256;26.960;2023-03-01T02:44:08;100663.42;;;3.79;100.00
11413;BME280;5762;43.256;26.960;2023-03-01T02:46:44;100655.62;;;3.78;100.00
11413;BME280;5762;43.256;26.960;2023-03-01T02:49:18;100657.78;;;3.78;100.00
11413;BME280;5762;43.256;26.960;2023-03-01T02:51:47;100656.96;;;3.78;100.00
11413;BME280;5762;43.256;26.960;2023-03-01T02:56:47;100659.92;;;3.90;100.00
11413;BME280;5762;43.256;26.960;2023-03-01T02:59:16;100652.81;;;3.84;100.00
11413;BME280;5762;43.256;26.960;2023-03-01T03:01:45;100654.50;;;3.88;100.00
11413;BME280;5762;43.256;26.960;2023-03-01T03:04:15;100652.94;;;3.89;100.00
11413;BME280;5762;43.256;26.960;2023-03-01T03:06:44;100645.66;;;3.87;100.00
11413;BME280;5762;43.256;26.960;2023-03-01T03:09:13;100641.18;;;3.90;100.00
11413;BME280;5762;43.256;26.960;2023-03-01T03:11:42;100641.77;;;3.92;100.00
11413;BME280;5762;43.256;26.960;2023-03-01T03:14:12;100642.23;;;3.89;100.00
11413;BME280;5762;43.256;26.960;2023-03-01T03:16:42;100632.09;;;3.91;100.00
11413;BME280;5762;43.256;26.960;2023-03-01T03:19:10;100625.11;;;3.90;100.00
11413;BME280;5762;43.256;26.960;2023-03-01T03:21:39;100619.47;;;3.89;100.00
11413;BME280;5762;43.256;26.960;2023-03-01T03:24:08;100615.73;;;3.90;100.00
11413;BME280;5762;43.256;26.960;2023-03-01T03:26:36;100611.95;;;3.89;100.00
11413;BME280;5762;43.256;26.960;2023-03-01T03:29:05;100606.95;;;3.92;100.00
11413;BME280;5762;43.256;26.960;2023-03-01T03:31:34;100605.55;;;3.90;100.00
11413;BME280;5762;43.256;26.960;2023-03-01T03:34:02;100606.13;;;3.92;100.00
11413;BME280;5762;43.256;26.960;2023-03-01T03:36:31;100612.72;;;3.98;100.00
11413;BME280;5762;43.256;26.960;2023-03-01T03:39:00;100613.30;;;4.00;100.00
11413;BME280;5762;43.256;26.960;2023-03-01T03:41:29;100620.80;;;3.89;100.00
11413;BME280;5762;43.256;26.960;2023-03-01T03:43:57;100620.75;;;3.98;100.00
11413;BME280;5762;43.256;26.960;2023-03-01T03:46:26;100615.69;;;3.99;100.00
11413;BME280;5762;43.256;26.960;2023-03-01T03:49:12;100613.59;;;4.01;100.00
11413;BME280;5762;43.256;26.960;2023-03-01T03:51:40;100604.91;;;3.97;100.00
11413;BME280;5762;43.256;26.960;2023-03-01T03:54:09;100605.50;;;3.99;100.00
11413;BME280;5762;43.256;26.960;2023-03-01T03:56:38;100611.15;;;4.00;100.00
11413;BME280;5762;43.256;26.960;2023-03-01T03:59:23;100611.55;;;4.06;100.00
11413;BME280;5762;43.256;26.960;2023-03-01T04:01:52;100618.31;;;4.09;100.00
11413;BME280;5762;43.256;26.960;2023-03-01T04:04:21;100623.09;;;4.07;100.00
11413;BME280;5762;43.256;26.960;2023-03-01T04:06:49;100626.81;;;4.06;100.00
11413;BME280;5762;43.256;26.960;2023-03-01T04:09:18;100623.14;;;4.09;100.00
11413;BME280;5762;43.256;26.960;2023-03-01T04:11:46;100615.98;;;4.12;100.00
11413;BME280;5762;43.256;26.960;2023-03-01T04:14:14;100614.47;;;4.04;100.00
11413;BME280;5762;43.256;26.960;2023-03-01T04:16:44;100607.95;;;4.12;100.00
11413;BME280;5762;43.256;26.960;2023-03-01T04:19:12;100616.88;;;4.18;100.00
11413;BME280;5762;43.256;26.960;2023-03-01T04:21:42;100614.12;;;4.13;100.00
11413;BME280;5762;43.256;26.960;2023-03-01T04:24:11;100611.73;;;4.14;100.00
11413;BME280;5762;43.256;26.960;2023-03-01T04:26:39;100608.47;;;4.12;100.00
11413;BME280;5762;43.256;26.960;2023-03-01T04:29:08;100611.20;;;4.02;100.00
11413;BME280;5762;43.256;26.960;2023-03-01T04:31:37;100607.42;;;4.13;100.00
11413;BME280;5762;43.256;26.960;2023-03-01T04:34:06;100602.94;;;4.16;100.00
11413;BME280;5762;43.256;26.960;2023-03-01T04:36:35;100605.85;;;4.02;100.00
11413;BME280;5762;43.256;26.960;2023-03-01T04:39:04;100609.87;;;4.14;100.00
11413;BME280;5762;43.256;26.960;2023-03-01T04:41:33;100617.84;;;4.12;100.00
11413;BME280;5762;43.256;26.960;2023-03-01T04:44:01;100615.17;;;4.12;100.00
11413;BME280;5762;43.256;26.960;2023-03-01T04:46:30;100618.08;;;4.10;100.00
11413;BME280;5762;43.256;26.960;2023-03-01T04:48:58;100616.33;;;4.16;100.00
11413;BME280;5762;43.256;26.960;2023-03-01T04:51:27;100606.41;;;4.16;100.00
11413;BME280;5762;43.256;26.960;2023-03-01T04:53:56;100604.53;;;4.17;100.00
11413;BME280;5762;43.256;26.960;2023-03-01T04:56:25;100602.73;;;4.20;100.00
11413;BME280;5762;43.256;26.960;2023-03-01T04:58:53;100610.42;;;4.16;100.00
11413;BME280;5762;43.256;26.960;2023-03-01T05:01:22;100602.97;;;4.18;100.00
11413;BME280;5762;43.256;26.960;2023-03-01T05:03:51;100605.64;;;4.18;100.00
11413;BME280;5762;43.256;26.960;2023-03-01T05:06:21;100612.31;;;4.16;100.00
11413;BME280;5762;43.256;26.960;2023-03-01T05:08:49;100605.62;;;4.16;100.00
11413;BME280;5762;43.256;26.960;2023-03-01T05:11:19;100606.14;;;4.15;100.00
11413;BME280;5762;43.256;26.960;2023-03-01T05:13:47;100605.23;;;4.24;100.00
11413;BME280;5762;43.256;26.960;2023-03-01T05:16:17;100611.81;;;4.19;100.00
11413;BME280;5762;43.256;26.960;2023-03-01T05:18:46;100606.52;;;4.21;100.00
11413;BME280;5762;43.256;26.960;2023-03-01T05:21:15;100605.94;;;4.19;100.00
11413;BME280;5762;43.256;26.960;2023-03-01T05:23:44;100603.25;;;4.19;100.00
11413;BME280;5762;43.256;26.960;2023-03-01T05:26:13;100605.29;;;4.26;100.00
11413;BME280;5762;43.256;26.960;2023-03-01T05:28:42;100608.67;;;4.22;100.00
11413;BME280;5762;43.256;26.960;2023-03-01T05:31:11;100611.81;;;4.19;100.00
11413;BME280;5762;43.256;26.960;2023-03-01T05:33:40;100614.91;;;4.25;100.00
11413;BME280;5762;43.256;26.960;2023-03-01T05:36:10;100612.28;;;4.27;100.00
11413;BME280;5762;43.256;26.960;2023-03-01T05:38:38;100611.53;;;4.18;100.00
11413;BME280;5762;43.256;26.960;2023-03-01T05:41:12;100610.16;;;4.15;100.00
11413;BME280;5762;43.256;26.960;2023-03-01T05:43:36;100608.67;;;4.22;100.00
11413;BME280;5762;43.256;26.960;2023-03-01T05:46:04;100611.94;;;4.24;100.00
11413;BME280;5762;43.256;26.960;2023-03-01T05:48:33;100617.88;;;4.26;100.00
11413;BME280;5762;43.256;26.960;2023-03-01T05:51:02;100611.70;;;4.25;100.00
11413;BME280;5762;43.256;26.960;2023-03-01T05:53:30;100612.63;;;4.31;100.00
11413;BME280;5762;43.256;26.960;2023-03-01T05:55:59;100622.06;;;4.33;100.00
11413;BME280;5762;43.256;26.960;2023-03-01T05:58:28;100626.44;;;4.25;100.00
11413;BME280;5762;43.256;26.960;2023-03-01T06:00:57;100627.83;;;4.28;100.00
11413;BME280;5762;43.256;26.960;2023-03-01T06:03:26;100624.05;;;4.26;100.00
11413;BME280;5762;43.256;26.960;2023-03-01T06:05:56;100620.14;;;4.20;100.00
11413;BME280;5762;43.256;26.960;2023-03-01T06:08:25;100631.09;;;4.30;100.00
11413;BME280;5762;43.256;26.960;2023-03-01T06:10:54;100630.34;;;4.32;100.00
11413;BME280;5762;43.256;26.960;2023-03-01T06:13:23;100628.58;;;4.37;100.00
11413;BME280;5762;43.256;26.960;2023-03-01T06:15:52;100622.52;;;4.42;100.00
11413;BME280;5762;43.256;26.960;2023-03-01T06:18:20;100618.33;;;4.34;100.00
11413;BME280;5762;43.256;26.960;2023-03-01T06:20:53;100616.58;;;4.40;100.00
11413;BME280;5762;43.256;26.960;2023-03-01T06:23:22;100609.42;;;4.31;100.00
11413;BME280;5762;43.256;26.960;2023-03-01T06:25:51;100614.72;;;4.29;100.00
11413;BME280;5762;43.256;26.960;2023-03-01T06:28:20;100620.78;;;4.36;100.00
11413;BME280;5762;43.256;26.960;2023-03-01T06:30:51;100611.64;;;4.34;100.00
11413;BME280;5762;43.256;26.960;2023-03-01T06:33:20;100611.22;;;4.40;100.00
11413;BME280;5762;43.256;26.960;2023-03-01T06:35:49;100615.17;;;4.49;100.00
11413;BME280;5762;43.256;26.960;2023-03-01T06:38:18;100602.84;;;4.51;100.00
11413;BME280;5762;43.256;26.960;2023-03-01T06:40:56;100587.50;;;4.46;100.00
11413;BME280;5762;43.256;26.960;2023-03-01T06:43:17;100595.91;;;4.52;100.00
11413;BME280;5762;43.256;26.960;2023-03-01T06:45:46;100589.78;;;4.54;100.00
11413;BME280;5762;43.256;26.960;2023-03-01T06:48:14;100586.39;;;4.59;100.00
11413;BME280;5762;43.256;26.960;2023-03-01T06:50:43;100584.23;;;4.58;100.00
11413;BME280;5762;43.256;26.960;2023-03-01T06:53:12;100591.62;;;4.65;100.00
11413;BME280;5762;43.256;26.960;2023-03-01T06:55:41;100597.56;;;4.67;100.00
11413;BME280;5762;43.256;26.960;2023-03-01T06:58:09;100597.22;;;4.64;100.00
11413;BME280;5762;43.256;26.960;2023-03-01T07:00:38;100590.89;;;4.56;100.00
11413;BME280;5762;43.256;26.960;2023-03-01T07:03:07;100589.23;;;4.66;100.00
11413;BME280;5762;43.256;26.960;2023-03-01T07:05:37;100584.81;;;4.60;100.00
11413;BME280;5762;43.256;26.960;2023-03-01T07:08:05;100588.55;;;4.59;100.00
11413;BME280;5762;43.256;26.960;2023-03-01T07:10:34;100584.05;;;4.62;100.00
11413;BME280;5762;43.256;26.960;2023-03-01T07:13:02;100580.03;;;4.62;100.00
11413;BME280;5762;43.256;26.960;2023-03-01T07:15:31;100575.77;;;4.64;100.00
11413;BME280;5762;43.256;26.960;2023-03-01T07:18:00;100573.83;;;4.74;100.00
11413;BME280;5762;43.256;26.960;2023-03-01T07:20:29;100573.72;;;4.68;100.00
11413;BME280;5762;43.256;26.960;2023-03-01T07:22:58;100575.64;;;4.70;100.00
11413;BME280;5762;43.256;26.960;2023-03-01T07:25:27;100580.72;;;4.69;100.00
11413;BME280;5762;43.256;26.960;2023-03-01T07:27:55;100591.49;;;4.72;100.00
11413;BME280;5762;43.256;26.960;2023-03-01T07:30:24;100595.09;;;4.78;100.00
11413;BME280;5762;43.256;26.960;2023-03-01T07:32:55;100589.86;;;4.71;100.00
11413;BME280;5762;43.256;26.960;2023-03-01T07:35:25;100590.83;;;4.79;100.00
11413;BME280;5762;43.256;26.960;2023-03-01T07:37:56;100594.42;;;4.85;100.00
11413;BME280;5762;43.256;26.960;2023-03-01T07:40:25;100597.36;;;4.86;100.00
11413;BME280;5762;43.256;26.960;2023-03-01T07:42:57;100597.66;;;4.87;100.00
11413;BME280;5762;43.256;26.960;2023-03-01T07:45:25;100605.56;;;4.93;100.00
11413;BME280;5762;43.256;26.960;2023-03-01T07:47:54;100607.53;;;4.98;100.00
11413;BME280;5762;43.256;26.960;2023-03-01T07:50:23;100608.67;;;4.88;100.00
11413;BME280;5762;43.256;26.960;2023-03-01T07:52:51;100611.88;;;4.87;100.00
11413;BME280;5762;43.256;26.960;2023-03-01T07:55:20;100611.74;;;4.94;100.00
11413;BME280;5762;43.256;26.960;2023-03-01T07:57:49;100608.53;;;4.94;100.00
11413;BME280;5762;43.256;26.960;2023-03-01T08:00:18;100614.90;;;4.91;100.00
11413;BME280;5762;43.256;26.960;2023-03-01T08:02:47;100612.94;;;5.00;100.00
11413;BME280;5762;43.256;26.960;2023-03-01T08:05:15;100607.81;;;4.99;100.00
11413;BME280;5762;43.256;26.960;2023-03-01T08:07:44;100609.97;;;4.99;100.00
11413;BME280;5762;43.256;26.960;2023-03-01T08:10:13;100608.88;;;5.12;100.00
11413;BME280;5762;43.256;26.960;2023-03-01T08:12:42;100611.94;;;5.04;100.00
11413;BME280;5762;43.256;26.960;2023-03-01T08:15:10;100614.95;;;5.08;100.00
11413;BME280;5762;43.256;26.960;2023-03-01T08:17:38;100607.25;;;5.11;100.00
11413;BME280;5762;43.256;26.960;2023-03-01T08:20:07;100605.58;;;5.24;100.00
11413;BME280;5762;43.256;26.960;2023-03-01T08:22:36;100606.06;;;5.21;100.00
11413;BME280;5762;43.256;26.960;2023-03-01T08:25:05;100591.02;;;5.20;100.00
11413;BME280;5762;43.256;26.960;2023-03-01T08:27:34;100398.55;;;3.89;100.00
11413;BME280;5762;43.256;26.960;2023-03-01T08:30:02;100587.55;;;5.20;100.00
11413;BME280;5762;43.256;26.960;2023-03-01T08:32:35;100584.69;;;5.26;100.00
11413;BME280;5762;43.256;26.960;2023-03-01T08:35:01;100580.47;;;5.30;100.00
11413;BME280;5762;43.256;26.960;2023-03-01T08:37:30;100581.91;;;5.21;100.00
11413;BME280;5762;43.256;26.960;2023-03-01T08:39:59;100581.38;;;5.22;100.00
11413;BME280;5762;43.256;26.960;2023-03-01T08:42:28;100580.05;;;5.22;100.00
11413;BME280;5762;43.256;26.960;2023-03-01T08:44:57;100591.16;;;5.28;100.00
11413;BME280;5762;43.256;26.960;2023-03-01T08:47:25;100591.73;;;5.30;100.00
11413;BME280;5762;43.256;26.960;2023-03-01T08:49:54;100592.13;;;5.22;100.00
11413;BME280;5762;43.256;26.960;2023-03-01T08:52:22;100585.34;;;5.17;100.00
11413;BME280;5762;43.256;26.960;2023-03-01T08:54:51;100582.20;;;5.22;100.00
11413;BME280;5762;43.256;26.960;2023-03-01T08:57:20;100586.99;;;5.20;100.00
11413;BME280;5762;43.256;26.960;2023-03-01T08:59:49;100582.19;;;5.20;100.00
11413;BME280;5762;43.256;26.960;2023-03-01T09:02:18;100582.29;;;5.27;100.00
11413;BME280;5762;43.256;26.960;2023-03-01T09:04:47;100578.06;;;5.31;100.00
11413;BME280;5762;43.256;26.960;2023-03-01T09:07:17;100570.13;;;5.22;100.00
11413;BME280;5762;43.256;26.960;2023-03-01T09:09:46;100567.24;;;5.26;100.00
11413;BME280;5762;43.256;26.960;2023-03-01T09:12:14;100573.47;;;5.29;100.00
11413;BME280;5762;43.256;26.960;2023-03-01T09:14:43;100568.58;;;5.26;100.00
11413;BME280;5762;43.256;26.960;2023-03-01T09:17:12;100569.73;;;5.30;100.00
11413;BME280;5762;43.256;26.960;2023-03-01T09:19:43;100568.77;;;5.36;100.00
11413;BME280;5762;43.256;26.960;2023-03-01T09:22:12;100569.95;;;5.43;100.00
11413;BME280;5762;43.256;26.960;2023-03-01T09:24:41;100564.73;;;5.36;100.00
11413;BME280;5762;43.256;26.960;2023-03-01T09:27:10;100565.55;;;5.37;100.00
11413;BME280;5762;43.256;26.960;2023-03-01T09:29:39;100570.44;;;5.40;100.00
11413;BME280;5762;43.256;26.960;2023-03-01T09:32:08;100562.80;;;5.49;100.00
11413;BME280;5762;43.256;26.960;2023-03-01T09:34:36;100566.87;;;5.51;100.00
11413;BME280;5762;43.256;26.960;2023-03-01T09:37:06;100564.99;;;5.52;100.00
11413;BME280;5762;43.256;26.960;2023-03-01T09:39:34;100567.88;;;5.48;100.00
11413;BME280;5762;43.256;26.960;2023-03-01T09:42:04;100566.98;;;5.42;100.00
11413;BME280;5762;43.256;26.960;2023-03-01T09:47:02;100562.14;;;5.42;100.00
11413;BME280;5762;43.256;26.960;2023-03-01T09:49:33;100557.45;;;5.34;100.00
11413;BME280;5762;43.256;26.960;2023-03-01T09:52:19;100558.05;;;5.22;100.00
11413;BME280;5762;43.256;26.960;2023-03-01T09:54:42;100555.54;;;5.32;100.00
11413;BME280;5762;43.256;26.960;2023-03-01T09:57:17;100554.05;;;5.39;100.00
11413;BME280;5762;43.256;26.960;2023-03-01T10:02:33;100549.16;;;5.36;100.00
11413;BME280;5762;43.256;26.960;2023-03-01T10:10:38;100544.16;;;5.42;100.00
11413;BME280;5762;43.256;26.960;2023-03-01T10:15:37;100545.39;;;5.51;100.00
11413;BME280;5762;43.256;26.960;2023-03-01T10:18:16;100535.17;;;5.51;100.00
11413;BME280;5762;43.256;26.960;2023-03-01T10:20:42;100559.67;;;5.57;100.00
11413;BME280;5762;43.256;26.960;2023-03-01T10:23:07;100534.20;;;5.59;100.00
11413;BME280;5762;43.256;26.960;2023-03-01T10:30:44;100516.15;;;5.55;100.00
11413;BME280;5762;43.256;26.960;2023-03-01T10:33:23;100514.80;;;5.52;100.00
11413;BME280;5762;43.256;26.960;2023-03-01T10:35:51;100514.68;;;5.64;100.00
11413;BME280;5762;43.256;26.960;2023-03-01T10:38:20;100501.25;;;5.64;100.00
11413;BME280;5762;43.256;26.960;2023-03-01T10:40:55;100502.56;;;5.61;100.00
11413;BME280;5762;43.256;26.960;2023-03-01T10:43:30;100498.36;;;5.68;100.00
11413;BME280;5762;43.256;26.960;2023-03-01T10:45:54;100494.08;;;5.69;100.00
11413;BME280;5762;43.256;26.960;2023-03-01T10:48:24;100496.03;;;5.74;100.00
11413;BME280;5762;43.256;26.960;2023-03-01T10:53:38;100481.47;;;5.70;100.00
11413;BME280;5762;43.256;26.960;2023-03-01T10:56:08;100483.91;;;5.71;100.00
11413;BME280;5762;43.256;26.960;2023-03-01T10:58:37;100478.50;;;5.69;100.00
11413;BME280;5762;43.256;26.960;2023-03-01T11:01:24;100468.33;;;5.71;100.00
11413;BME280;5762;43.256;26.960;2023-03-01T11:03:36;100456.80;;;5.73;100.00
11413;BME280;5762;43.256;26.960;2023-03-01T11:08:42;100442.03;;;5.73;100.00
11413;BME280;5762;43.256;26.960;2023-03-01T11:11:19;100432.42;;;5.77;100.00
11413;BME280;5762;43.256;26.960;2023-03-01T11:13:55;100426.55;;;5.80;100.00
11413;BME280;5762;43.256;26.960;2023-03-01T11:16:27;100435.92;;;5.78;100.00
11413;BME280;5762;43.256;26.960;2023-03-01T11:21:57;100419.59;;;5.82;100.00
11413;BME280;5762;43.256;26.960;2023-03-01T11:24:37;100426.87;;;5.84;100.00
11413;BME280;5762;43.256;26.960;2023-03-01T11:27:02;100421.25;;;5.85;100.00
11413;BME280;5762;43.256;26.960;2023-03-01T11:29:38;100420.72;;;5.86;100.00
11413;BME280;5762;43.256;26.960;2023-03-01T11:32:05;100412.19;;;5.89;100.00
11413;BME280;5762;43.256;26.960;2023-03-01T11:34:43;100411.50;;;5.79;100.00
11413;BME280;5762;43.256;26.960;2023-03-01T11:37:02;100414.59;;;5.90;100.00
11413;BME280;5762;43.256;26.960;2023-03-01T11:39:37;100416.28;;;5.96;100.00
11413;BME280;5762;43.256;26.960;2023-03-01T11:42:06;100416.25;;;5.94;100.00
11413;BME280;5762;43.256;26.960;2023-03-01T11:44:30;100412.69;;;5.88;100.00
11413;BME280;5762;43.256;26.960;2023-03-01T11:47:08;100412.34;;;5.82;100.00
11413;BME280;5762;43.256;26.960;2023-03-01T11:55:01;100406.59;;;5.73;100.00
11413;BME280;5762;43.256;26.960;2023-03-01T12:00:25;100411.96;;;5.73;100.00
11413;BME280;5762;43.256;26.960;2023-03-01T12:08:53;100410.80;;;5.67;100.00
11413;BME280;5762;43.256;26.960;2023-03-01T12:11:00;100416.09;;;5.62;100.00
11413;BME280;5762;43.256;26.960;2023-03-01T12:16:05;100410.66;;;5.57;100.00
11413;BME280;5762;43.256;26.960;2023-03-01T12:18:47;100410.16;;;5.60;100.00
11413;BME280;5762;43.256;26.960;2023-03-01T12:23:50;100403.63;;;5.51;100.00
11413;BME280;5762;43.256;26.960;2023-03-01T12:26:19;100407.41;;;5.52;100.00
11413;BME280;5762;43.256;26.960;2023-03-01T12:28:48;100403.37;;;5.52;100.00
11413;BME280;5762;43.256;26.960;2023-03-01T12:47:04;100394.69;;;5.45;100.00
11413;BME280;5762;43.256;26.960;2023-03-01T12:49:40;100399.87;;;5.52;100.00
11413;BME280;5762;43.256;26.960;2023-03-01T12:52:15;100393.70;;;5.51;100.00
11413;BME280;5762;43.256;26.960;2023-03-01T12:54:43;100397.58;;;5.41;100.00
11413;BME280;5762;43.256;26.960;2023-03-01T12:57:17;100400.70;;;5.52;100.00
11413;BME280;5762;43.256;26.960;2023-03-01T12:59:51;100396.14;;;5.53;100.00
11413;BME280;5762;43.256;26.960;2023-03-01T13:02:36;100408.22;;;5.53;100.00
11413;BME280;5762;43.256;26.960;2023-03-01T13:07:41;100405.05;;;5.58;100.00
11413;BME280;5762;43.256;26.960;2023-03-01T13:10:23;100405.29;;;5.57;100.00
11413;BME280;5762;43.256;26.960;2023-03-01T13:13:00;100401.27;;;5.57;100.00
11413;BME280;5762;43.256;26.960;2023-03-01T13:17:59;100396.14;;;5.55;100.00
11413;BME280;5762;43.256;26.960;2023-03-01T13:20:29;100390.59;;;5.62;100.00
11413;BME280;5762;43.256;26.960;2023-03-01T13:23:01;100388.47;;;5.64;100.00
11413;BME280;5762;43.256;26.960;2023-03-01T13:25:29;100395.03;;;5.73;100.00
11413;BME280;5762;43.256;26.960;2023-03-01T13:30:44;100394.47;;;5.71;100.00
11413;BME280;5762;43.256;26.960;2023-03-01T13:35:58;100391.78;;;5.71;100.00
11413;BME280;5762;43.256;26.960;2023-03-01T13:38:46;100387.27;;;5.74;100.00
11413;BME280;5762;43.256;26.960;2023-03-01T13:41:15;100386.70;;;5.72;100.00
11413;BME280;5762;43.256;26.960;2023-03-01T13:43:44;100387.05;;;5.78;100.00
11413;BME280;5762;43.256;26.960;2023-03-01T13:46:21;100382.02;;;5.84;100.00
11413;BME280;5762;43.256;26.960;2023-03-01T13:48:51;100376.67;;;5.87;100.00
11413;BME280;5762;43.256;26.960;2023-03-01T13:51:23;100371.05;;;5.88;100.00
11413;BME280;5762;43.256;26.960;2023-03-01T13:53:52;100369.49;;;5.92;100.00
11413;BME280;5762;43.256;26.960;2023-03-01T13:56:24;100369.86;;;6.01;100.00
11413;BME280;5762;43.256;26.960;2023-03-01T13:58:57;100368.15;;;5.92;100.00
11413;BME280;5762;43.256;26.960;2023-03-01T14:01:28;100365.49;;;5.95;100.00
11413;BME280;5762;43.256;26.960;2023-03-01T14:03:57;100357.20;;;5.99;100.00
11413;BME280;5762;43.256;26.960;2023-03-01T14:06:29;100357.69;;;5.93;100.00
11413;BME280;5762;43.256;26.960;2023-03-01T14:09:13;100355.22;;;5.89;100.00
11413;BME280;5762;43.256;26.960;2023-03-01T14:19:57;100361.00;;;5.79;100.00
11413;BME280;5762;43.256;26.960;2023-03-01T14:22:31;100362.09;;;5.80;100.00
11413;BME280;5762;43.256;26.960;2023-03-01T14:24:56;100362.06;;;5.78;100.00
11413;BME280;5762;43.256;26.960;2023-03-01T14:27:26;100361.38;;;5.87;100.00
11413;BME280;5762;43.256;26.960;2023-03-01T14:29:57;100361.91;;;5.87;100.00
11413;BME280;5762;43.256;26.960;2023-03-01T14:32:26;100359.25;;;5.89;100.00